Time;durP1;ratioP1;P1;durP2;ratioP2;P2;SDS_P1;SDS_P2;PMS_P1;PMS_P2;Temp;Humidity;BMP_temperature;BMP_pressure;BME280_temperature;BME280_humidity;BME280_pressure;Samples;Min_cycle;Max_cycle;Signal;HPM_P1;HPM_P2
2022/07/23 00:00:13;;;;;;;;;;;;;;;29.17;39.57;99770.63;4430387;32;19996;-87
2022/07/23 00:02:40;;;;;;;;;;;;;;;29.05;39.68;99763.41;4423813;32;19992;-87
2022/07/23 00:05:07;;;;;;;;;;;;;;;29.03;39.34;99760.81;4430899;32;20035;-87
2022/07/23 00:07:34;;;;;;;;;;;;;;;29.01;39.23;99757.41;4431723;32;20000;-88
2022/07/23 00:10:01;;;;;;;;;;;;;;;28.99;39.18;99753.94;4429140;32;19978;-89
2022/07/23 00:12:27;;;;;;;;;;;;;;;29.06;39.05;99755.28;4436991;32;20036;-87
2022/07/23 00:14:54;;;;;;;;;;;;;;;28.94;39.16;99761.34;4435051;32;20791;-86
2022/07/23 00:17:21;;;;;;;;;;;;;;;28.88;39.28;99751.94;4431541;32;19973;-88
2022/07/23 00:19:48;;;;;;;;;;;;;;;29.02;38.56;99753.78;4431335;32;20363;-85
2022/07/23 00:22:15;;;;;;;;;;;;;;;28.95;38.64;99752.41;4437634;32;20493;-86
2022/07/23 00:24:42;;;;;;;;;;;;;;;28.90;38.38;99751.81;4432850;32;20005;-87
2022/07/23 00:27:23;;;;;;;;;;;;;;;28.88;38.28;99746.59;4432929;32;20004;-85
2022/07/23 00:29:51;;;;;;;;;;;;;;;28.94;38.30;99756.00;4423862;32;20354;-87
2022/07/23 00:32:18;;;;;;;;;;;;;;;28.97;37.94;99753.16;4431365;32;20058;-85
2022/07/23 00:35:05;;;;;;;;;;;;;;;28.92;38.13;99752.59;4429497;32;19982;-86
2022/07/23 00:37:32;;;;;;;;;;;;;;;28.87;38.67;99760.00;4438722;32;19980;-86
2022/07/23 00:39:58;;;;;;;;;;;;;;;28.90;38.30;99757.16;4439796;32;20359;-86
2022/07/23 00:42:26;;;;;;;;;;;;;;;28.79;38.77;99764.97;4420214;32;19996;-85
2022/07/23 00:44:52;;;;;;;;;;;;;;;28.60;39.58;99766.06;4420991;32;19990;-86
2022/07/23 00:47:19;;;;;;;;;;;;;;;28.56;39.27;99766.31;4415847;32;20030;-85
2022/07/23 00:49:46;;;;;;;;;;;;;;;28.67;39.37;99764.72;4420525;32;19977;-86
2022/07/23 00:52:13;;;;;;;;;;;;;;;28.64;39.16;99764.91;4419263;32;20026;-85
2022/07/23 00:54:40;;;;;;;;;;;;;;;28.57;39.06;99765.37;4401900;32;19989;-84
2022/07/23 00:57:11;;;;;;;;;;;;;;;28.59;39.38;99764.34;4409179;32;20031;-85
2022/07/23 00:59:38;;;;;;;;;;;;;;;28.52;39.42;99760.31;4388644;32;19982;-86
2022/07/23 01:02:05;;;;;;;;;;;;;;;28.47;39.96;99762.41;4438960;32;19999;-86
2022/07/23 01:04:32;;;;;;;;;;;;;;;28.31;40.24;99757.09;4433472;32;20046;-86
2022/07/23 01:06:59;;;;;;;;;;;;;;;28.46;39.82;99764.22;4437165;32;20036;-85
2022/07/23 01:09:26;;;;;;;;;;;;;;;28.33;39.92;99764.97;4416342;32;20049;-85
2022/07/23 01:11:54;;;;;;;;;;;;;;;28.37;39.66;99761.22;4416909;32;20709;-85
2022/07/23 01:14:21;;;;;;;;;;;;;;;28.43;39.02;99763.53;4418485;32;20000;-85
2022/07/23 01:16:48;;;;;;;;;;;;;;;28.37;39.34;99761.22;4423852;32;20054;-86
2022/07/23 01:19:16;;;;;;;;;;;;;;;28.37;38.01;99761.22;4416610;32;19985;-85
2022/07/23 01:21:43;;;;;;;;;;;;;;;28.20;39.03;99757.72;4405847;32;20244;-84
2022/07/23 01:24:11;;;;;;;;;;;;;;;28.20;39.33;99765.69;4421182;32;20040;-87
2022/07/23 01:26:42;;;;;;;;;;;;;;;28.17;39.76;99760.53;4429462;32;20009;-86
2022/07/23 01:29:09;;;;;;;;;;;;;;;28.26;40.16;99765.34;4416529;32;20000;-86
2022/07/23 01:31:37;;;;;;;;;;;;;;;28.13;39.76;99764.34;4418823;32;20013;-87
2022/07/23 01:34:04;;;;;;;;;;;;;;;28.14;40.59;99771.38;4438885;32;19989;-90
2022/07/23 01:36:31;;;;;;;;;;;;;;;28.14;39.91;99765.19;4429345;32;20414;-89
2022/07/23 01:38:59;;;;;;;;;;;;;;;28.00;40.36;99763.34;4421215;32;19981;-89
2022/07/23 01:41:27;;;;;;;;;;;;;;;28.00;40.45;99758.00;4436081;32;19997;-88
2022/07/23 01:43:55;;;;;;;;;;;;;;;27.94;40.43;99761.03;4437433;32;19999;-86
2022/07/23 01:46:22;;;;;;;;;;;;;;;27.89;40.71;99760.41;4432590;32;20608;-86
2022/07/23 01:48:49;;;;;;;;;;;;;;;27.89;40.54;99758.63;4432953;32;20042;-86
2022/07/23 01:51:16;;;;;;;;;;;;;;;27.77;41.24;99762.84;4432672;32;20766;-86
2022/07/23 01:53:43;;;;;;;;;;;;;;;27.73;41.30;99760.41;4432505;32;19989;-87
2022/07/23 01:56:10;;;;;;;;;;;;;;;27.65;41.50;99760.81;4435769;32;20315;-87
2022/07/23 01:58:37;;;;;;;;;;;;;;;27.68;41.14;99755.34;4431574;32;20329;-86
2022/07/23 02:01:05;;;;;;;;;;;;;;;27.76;40.71;99758.44;4435946;32;20652;-86
2022/07/23 02:03:32;;;;;;;;;;;;;;;27.56;41.49;99748.91;4437724;32;19985;-86
2022/07/23 02:05:59;;;;;;;;;;;;;;;27.47;42.03;99753.88;4432891;32;20025;-87
2022/07/23 02:08:27;;;;;;;;;;;;;;;27.43;41.91;99747.00;4432820;32;20331;-85
2022/07/23 02:10:54;;;;;;;;;;;;;;;27.39;42.13;99748.13;4441473;32;19992;-86
2022/07/23 02:13:22;;;;;;;;;;;;;;;27.27;42.82;99757.63;4430690;32;20350;-86
2022/07/23 02:15:48;;;;;;;;;;;;;;;27.33;42.50;99755.47;4416618;32;19989;-86
2022/07/23 02:18:15;;;;;;;;;;;;;;;27.34;42.41;99759.00;4412344;32;20314;-86
2022/07/23 02:20:44;;;;;;;;;;;;;;;27.47;41.70;99753.88;4402464;32;20090;-86
2022/07/23 02:23:11;;;;;;;;;;;;;;;27.39;41.46;99761.41;4389713;32;20040;-86
2022/07/23 02:25:38;;;;;;;;;;;;;;;27.25;42.44;99755.06;4400009;32;20468;-85
2022/07/23 02:28:05;;;;;;;;;;;;;;;27.23;42.52;99756.94;4400436;32;20030;-85
2022/07/23 02:30:32;;;;;;;;;;;;;;;27.15;42.82;99760.94;4401621;32;19990;-85
2022/07/23 02:32:59;;;;;;;;;;;;;;;27.20;42.26;99759.75;4401868;32;19990;-87
2022/07/23 02:35:26;;;;;;;;;;;;;;;27.22;41.43;99755.22;4404370;32;20037;-86
2022/07/23 02:37:53;;;;;;;;;;;;;;;27.24;42.17;99757.78;4408296;32;20038;-86
2022/07/23 02:40:20;;;;;;;;;;;;;;;27.22;42.55;99765.84;4400142;32;20004;-85
2022/07/23 02:42:47;;;;;;;;;;;;;;;27.23;42.38;99764.91;4416852;32;20023;-85
2022/07/23 02:45:14;;;;;;;;;;;;;;;27.07;42.42;99762.19;4401903;32;20056;-86
2022/07/23 02:47:42;;;;;;;;;;;;;;;26.94;43.15;99768.22;4405551;32;20041;-87
2022/07/23 02:50:09;;;;;;;;;;;;;;;26.87;43.38;99765.91;4401471;32;20004;-88
2022/07/23 02:52:37;;;;;;;;;;;;;;;27.07;42.44;99756.00;4402225;32;19982;-87
2022/07/23 02:55:04;;;;;;;;;;;;;;;26.95;43.26;99757.50;4408102;32;20001;-86
2022/07/23 02:57:31;;;;;;;;;;;;;;;26.93;43.17;99758.53;4400722;32;20010;-87
2022/07/23 02:59:58;;;;;;;;;;;;;;;26.85;42.71;99751.81;4399365;32;20002;-87
2022/07/23 03:02:25;;;;;;;;;;;;;;;26.96;42.68;99750.41;4401201;32;20036;-87
2022/07/23 03:04:53;;;;;;;;;;;;;;;27.08;42.49;99752.41;4387693;32;19978;-87
2022/07/23 03:07:21;;;;;;;;;;;;;;;27.01;41.91;99749.22;4401148;32;20042;-85
2022/07/23 03:09:53;;;;;;;;;;;;;;;26.89;42.65;99753.38;4401650;32;20343;-86
2022/07/23 03:12:21;;;;;;;;;;;;;;;26.99;42.45;99752.88;4401387;32;20002;-85
2022/07/23 03:14:49;;;;;;;;;;;;;;;26.83;42.85;99743.06;4402814;32;20808;-86
2022/07/23 03:17:16;;;;;;;;;;;;;;;26.75;43.06;99749.75;4408433;32;19978;-86
2022/07/23 03:19:43;;;;;;;;;;;;;;;26.92;42.07;99751.50;4401670;32;20390;-85
2022/07/23 03:22:09;;;;;;;;;;;;;;;26.98;41.49;99751.19;4401331;32;20026;-85
2022/07/23 03:24:55;;;;;;;;;;;;;;;26.86;41.79;99750.88;4401709;32;19982;-85
2022/07/23 03:27:23;;;;;;;;;;;;;;;26.95;41.61;99756.66;4401131;32;19994;-87
2022/07/23 03:29:50;;;;;;;;;;;;;;;26.94;42.42;99746.97;4399775;32;19992;-85
2022/07/23 03:32:17;;;;;;;;;;;;;;;26.95;42.38;99746.03;4401262;32;19993;-85
2022/07/23 03:34:44;;;;;;;;;;;;;;;26.88;42.37;99735.72;4399678;32;19974;-85
2022/07/23 03:37:12;;;;;;;;;;;;;;;26.82;42.69;99745.81;4401114;32;20389;-86
2022/07/23 03:39:39;;;;;;;;;;;;;;;26.94;42.01;99749.63;4409882;32;19986;-85
2022/07/23 03:42:06;;;;;;;;;;;;;;;26.82;42.99;99756.44;4401293;32;19990;-85
2022/07/23 03:44:33;;;;;;;;;;;;;;;26.97;42.67;99752.13;4402974;32;20037;-86
2022/07/23 03:47:01;;;;;;;;;;;;;;;27.04;42.13;99753.50;4407685;32;19982;-85
2022/07/23 03:49:31;;;;;;;;;;;;;;;26.93;42.72;99753.22;4401293;32;20745;-85
2022/07/23 03:51:58;;;;;;;;;;;;;;;27.03;41.87;99759.78;4401122;32;19982;-85
2022/07/23 03:54:25;;;;;;;;;;;;;;;27.09;42.32;99762.09;4408092;32;20040;-85
2022/07/23 03:56:52;;;;;;;;;;;;;;;27.15;41.14;99763.59;4399844;32;20032;-88
2022/07/23 03:59:18;;;;;;;;;;;;;;;27.20;40.84;99762.41;4402806;32;20454;-88
2022/07/23 04:01:50;;;;;;;;;;;;;;;27.24;41.55;99763.09;4409722;32;19985;-86
2022/07/23 04:04:27;;;;;;;;;;;;;;;27.34;40.75;99765.16;2852652;32;20002228;-86
2022/07/23 04:06:55;;;;;;;;;;;;;;;27.19;40.95;99763.38;4401132;32;20065;-86
2022/07/23 04:09:22;;;;;;;;;;;;;;;27.27;41.48;99763.78;4408192;32;20004;-85
2022/07/23 04:11:49;;;;;;;;;;;;;;;27.39;40.49;99766.75;4401018;32;19977;-85
2022/07/23 04:14:16;;;;;;;;;;;;;;;27.27;41.82;99769.09;4408988;32;20014;-85
2022/07/23 04:16:43;;;;;;;;;;;;;;;27.33;41.09;99774.09;4401731;32;20005;-85
2022/07/23 04:19:10;;;;;;;;;;;;;;;27.42;41.89;99771.87;4399812;32;20014;-85
2022/07/23 04:21:39;;;;;;;;;;;;;;;27.23;41.68;99767.56;4401285;32;19993;-86
2022/07/23 04:24:06;;;;;;;;;;;;;;;27.37;41.57;99765.00;4408709;32;20045;-85
2022/07/23 04:26:33;;;;;;;;;;;;;;;27.25;41.98;99770.13;4401908;32;19970;-85
2022/07/23 04:28:59;;;;;;;;;;;;;;;27.34;41.89;99778.47;4401311;32;19985;-86
2022/07/23 04:31:27;;;;;;;;;;;;;;;27.27;42.15;99769.09;4401818;32;20004;-85
2022/07/23 04:34:01;;;;;;;;;;;;;;;27.34;42.15;99764.31;4407919;32;20047;-87
2022/07/23 04:36:28;;;;;;;;;;;;;;;27.19;43.07;99768.69;4400974;32;19982;-86
2022/07/23 04:38:54;;;;;;;;;;;;;;;27.37;42.79;99774.78;4405518;32;20300;-88
2022/07/23 04:41:21;;;;;;;;;;;;;;;27.37;41.85;99775.62;4404432;32;20013;-87
2022/07/23 04:43:48;;;;;;;;;;;;;;;27.46;42.22;99781.41;4391922;32;19997;-85
2022/07/23 04:46:15;;;;;;;;;;;;;;;27.48;42.16;99774.22;4371996;32;19974;-84
2022/07/23 04:48:43;;;;;;;;;;;;;;;27.51;42.62;99776.72;4404473;32;19982;-85
2022/07/23 04:51:10;;;;;;;;;;;;;;;27.53;42.53;99785.44;4405524;32;20006;-85
2022/07/23 04:53:38;;;;;;;;;;;;;;;27.61;43.11;99777.91;4401922;32;19989;-86
2022/07/23 04:56:04;;;;;;;;;;;;;;;27.55;42.71;99778.25;4408560;32;20331;-87
2022/07/23 04:58:32;;;;;;;;;;;;;;;27.53;42.80;99780.13;4407114;32;19982;-87
2022/07/23 05:00:59;;;;;;;;;;;;;;;27.55;41.98;99779.09;4413518;32;20319;-86
2022/07/23 05:03:26;;;;;;;;;;;;;;;27.63;41.74;99780.47;4402722;32;19979;-85
2022/07/23 05:05:53;;;;;;;;;;;;;;;27.78;42.09;99775.19;4399378;32;19992;-86
2022/07/23 05:08:20;;;;;;;;;;;;;;;27.85;40.82;99774.84;4399170;32;20769;-88
2022/07/23 05:10:48;;;;;;;;;;;;;;;27.90;40.81;99778.13;4400672;32;19978;-88
2022/07/23 05:13:16;;;;;;;;;;;;;;;27.98;41.00;99775.84;4400178;32;20143;-86
2022/07/23 05:15:46;;;;;;;;;;;;;;;28.04;40.39;99770.19;4399183;32;20371;-86
2022/07/23 05:18:23;;;;;;;;;;;;;;;28.08;40.04;99765.53;4405136;32;20021;-88
2022/07/23 05:20:50;;;;;;;;;;;;;;;28.20;40.21;99773.69;4401266;32;20035;-85
2022/07/23 05:23:17;;;;;;;;;;;;;;;28.25;40.14;99768.97;4411116;32;19994;-88
2022/07/23 05:25:44;;;;;;;;;;;;;;;28.31;40.01;99766.91;4399981;32;20000;-88
2022/07/23 05:28:11;;;;;;;;;;;;;;;28.41;39.91;99778.75;4398579;32;19997;-87
2022/07/23 05:30:38;;;;;;;;;;;;;;;28.46;39.95;99776.66;4408399;32;20016;-88
2022/07/23 05:33:07;;;;;;;;;;;;;;;28.55;40.35;99777.94;4399043;32;19993;-81
2022/07/23 05:35:34;;;;;;;;;;;;;;;28.64;40.21;99777.38;4399948;32;19974;-80
2022/07/23 05:38:02;;;;;;;;;;;;;;;28.58;39.86;99781.25;4401712;32;19986;-83
2022/07/23 05:40:29;;;;;;;;;;;;;;;28.69;40.52;99777.97;4407666;32;19974;-82
2022/07/23 05:42:56;;;;;;;;;;;;;;;28.81;40.48;99771.03;4400164;32;19987;-81
2022/07/23 05:45:23;;;;;;;;;;;;;;;28.80;40.47;99775.50;4400282;32;19974;-83
2022/07/23 05:47:50;;;;;;;;;;;;;;;29.00;39.95;99776.09;4400103;32;20311;-82
2022/07/23 05:50:18;;;;;;;;;;;;;;;28.96;40.16;99770.97;4400183;32;20499;-84
2022/07/23 05:52:45;;;;;;;;;;;;;;;29.00;40.15;99784.09;4097518;32;10004622;-81
2022/07/23 05:55:13;;;;;;;;;;;;;;;29.19;39.67;99772.22;4400134;32;19994;-85
2022/07/23 05:57:40;;;;;;;;;;;;;;;29.26;40.11;99772.72;4400025;32;19986;-85
2022/07/23 06:00:08;;;;;;;;;;;;;;;29.27;40.46;99773.59;4400522;32;19993;-81
2022/07/23 06:02:39;;;;;;;;;;;;;;;29.37;40.31;99774.72;4400420;32;20772;-88
2022/07/23 06:05:07;;;;;;;;;;;;;;;29.45;39.64;99772.41;4386699;32;19994;-84
2022/07/23 06:07:35;;;;;;;;;;;;;;;29.54;39.43;99777.16;4374298;32;19971;-86
2022/07/23 06:10:03;;;;;;;;;;;;;;;29.68;39.18;99767.47;4384941;32;20160;-85
2022/07/23 06:12:31;;;;;;;;;;;;;;;29.51;39.09;99761.34;4397397;32;20019;-84
2022/07/23 06:14:58;;;;;;;;;;;;;;;29.69;38.80;99763.84;4386769;32;19986;-86
2022/07/23 06:17:25;;;;;;;;;;;;;;;29.79;38.32;99762.28;4382906;32;20287;-85
2022/07/23 06:19:53;;;;;;;;;;;;;;;29.88;37.89;99753.69;4383104;32;20325;-85
2022/07/23 06:22:19;;;;;;;;;;;;;;;29.99;37.78;99753.81;4390324;32;19982;-85
2022/07/23 06:24:46;;;;;;;;;;;;;;;30.18;37.67;99755.28;4398622;32;20042;-84
2022/07/23 06:27:13;;;;;;;;;;;;;;;30.22;38.00;99752.34;4400933;32;20024;-86
2022/07/23 06:29:41;;;;;;;;;;;;;;;30.47;37.34;99754.22;4396062;32;19990;-84
2022/07/23 06:32:07;;;;;;;;;;;;;;;30.80;37.17;99758.25;4392396;32;19986;-84
2022/07/23 06:34:35;;;;;;;;;;;;;;;30.96;35.12;99747.34;4384570;32;19983;-86
2022/07/23 06:37:01;;;;;;;;;;;;;;;31.47;35.19;99753.50;4386207;32;19978;-85
2022/07/23 06:39:28;;;;;;;;;;;;;;;31.73;34.56;99758.78;4390350;32;20000;-86
2022/07/23 06:41:56;;;;;;;;;;;;;;;32.05;34.05;99742.19;4385053;32;20050;-87
2022/07/23 06:44:34;;;;;;;;;;;;;;;32.37;33.99;99743.28;4386726;32;20016;-87
2022/07/23 06:47:01;;;;;;;;;;;;;;;32.89;33.06;99752.69;4388365;32;19992;-87
2022/07/23 06:49:28;;;;;;;;;;;;;;;33.01;31.12;99747.38;4081639;32;10003871;-88
2022/07/23 06:51:56;;;;;;;;;;;;;;;33.27;30.88;99753.34;4385944;32;19990;-88
2022/07/23 06:54:23;;;;;;;;;;;;;;;33.50;30.96;99759.59;4388395;32;19979;-88
2022/07/23 06:56:51;;;;;;;;;;;;;;;33.85;29.66;99748.66;4392177;32;20022;-88
2022/07/23 06:59:18;;;;;;;;;;;;;;;34.32;29.51;99745.69;4386690;32;20383;-86
2022/07/23 07:01:45;;;;;;;;;;;;;;;34.30;30.86;99747.66;4385689;32;19991;-88
2022/07/23 07:04:12;;;;;;;;;;;;;;;34.60;30.71;99750.47;4385968;32;20021;-86
2022/07/23 07:06:39;;;;;;;;;;;;;;;34.68;29.38;99742.56;4385860;32;19978;-87
2022/07/23 07:09:06;;;;;;;;;;;;;;;35.02;30.12;99745.03;4394825;32;19978;-87
2022/07/23 07:11:33;;;;;;;;;;;;;;;35.09;29.27;99734.63;4384724;32;19990;-87
2022/07/23 07:14:00;;;;;;;;;;;;;;;35.18;30.79;99734.66;4386823;32;20066;-87
2022/07/23 07:16:27;;;;;;;;;;;;;;;35.45;28.59;99730.53;4076862;32;10004356;-87
2022/07/23 07:18:58;;;;;;;;;;;;;;;35.50;28.04;99725.56;4371229;32;19996;-88
2022/07/23 07:21:26;;;;;;;;;;;;;;;35.80;28.15;99739.94;4371480;32;19975;-86
2022/07/23 07:23:53;;;;;;;;;;;;;;;35.68;25.07;99730.31;4370954;32;20296;-84
2022/07/23 07:26:19;;;;;;;;;;;;;;;35.83;26.45;99723.50;4371141;32;20046;-85
2022/07/23 07:28:46;;;;;;;;;;;;;;;36.11;28.39;99732.63;4370941;32;20039;-84
2022/07/23 07:31:13;;;;;;;;;;;;;;;36.33;26.88;99731.50;4374318;32;19987;-85
2022/07/23 07:33:40;;;;;;;;;;;;;;;36.41;27.15;99723.56;4384708;32;19979;-85
2022/07/23 07:36:07;;;;;;;;;;;;;;;36.51;26.44;99729.81;4384636;32;19983;-85
2022/07/23 07:38:34;;;;;;;;;;;;;;;36.62;26.03;99730.62;4382076;32;20446;-85
2022/07/23 07:41:01;;;;;;;;;;;;;;;36.93;25.79;99724.00;4377588;32;20624;-85
2022/07/23 07:43:28;;;;;;;;;;;;;;;36.84;25.56;99724.03;4373007;32;19974;-86
2022/07/23 07:45:55;;;;;;;;;;;;;;;36.91;25.48;99720.59;4377793;32;19999;-86
2022/07/23 07:48:21;;;;;;;;;;;;;;;37.65;25.54;99726.97;4371210;32;20321;-85
2022/07/23 07:50:48;;;;;;;;;;;;;;;37.57;27.62;99721.50;4370944;32;20009;-85
2022/07/23 07:53:15;;;;;;;;;;;;;;;37.99;25.51;99715.53;4369529;32;19986;-85
2022/07/23 07:55:42;;;;;;;;;;;;;;;37.81;27.36;99719.03;4378571;32;20038;-86
2022/07/23 07:58:17;;;;;;;;;;;;;;;38.00;23.71;99717.22;4370684;32;19983;-86
2022/07/23 08:00:44;;;;;;;;;;;;;;;38.29;22.20;99717.81;4378764;32;19974;-86
2022/07/23 08:03:11;;;;;;;;;;;;;;;37.92;21.81;99716.12;4371299;32;19979;-85
2022/07/23 08:05:39;;;;;;;;;;;;;;;38.21;22.54;99720.44;4376956;32;20004;-85
2022/07/23 08:08:06;;;;;;;;;;;;;;;38.01;23.69;99718.94;4409389;32;20418;-86
2022/07/23 08:10:33;;;;;;;;;;;;;;;38.13;24.49;99723.06;4401063;32;20830;-85
2022/07/23 08:13:00;;;;;;;;;;;;;;;38.47;20.95;99720.50;4405280;32;20024;-85
2022/07/23 08:15:28;;;;;;;;;;;;;;;38.62;20.65;99723.50;4431510;32;19974;-87
2022/07/23 08:17:55;;;;;;;;;;;;;;;38.83;19.60;99710.47;4433179;32;20043;-85
2022/07/23 08:20:22;;;;;;;;;;;;;;;38.35;21.68;99722.56;4441831;32;19981;-85
2022/07/23 08:22:50;;;;;;;;;;;;;;;38.27;22.21;99722.53;4419786;32;19986;-87
2022/07/23 08:25:21;;;;;;;;;;;;;;;38.49;21.93;99717.66;4431308;32;20362;-84
2022/07/23 08:27:48;;;;;;;;;;;;;;;38.60;23.95;99725.50;4436797;32;19981;-84
2022/07/23 08:30:16;;;;;;;;;;;;;;;38.94;21.37;99722.03;4434496;32;19995;-87
2022/07/23 08:32:55;;;;;;;;;;;;;;;38.83;24.33;99721.31;4432986;32;20032;-86
2022/07/23 08:35:26;;;;;;;;;;;;;;;39.11;20.67;99718.37;4423374;32;20001;-85
2022/07/23 08:37:54;;;;;;;;;;;;;;;39.11;21.04;99729.22;4422907;32;20032;-83
2022/07/23 08:40:21;;;;;;;;;;;;;;;39.29;21.41;99730.00;4437559;32;19978;-86
2022/07/23 08:42:49;;;;;;;;;;;;;;;39.09;21.12;99720.41;4446685;32;20028;-86
2022/07/23 08:45:17;;;;;;;;;;;;;;;39.33;20.19;99716.12;4446472;32;19999;-84
2022/07/23 08:47:44;;;;;;;;;;;;;;;39.39;21.11;99726.31;4083972;32;10004775;-85
2022/07/23 08:50:18;;;;;;;;;;;;;;;39.70;20.18;99724.72;4386818;32;19990;-87
2022/07/23 08:52:45;;;;;;;;;;;;;;;39.66;19.73;99712.50;4395668;32;20044;-84
2022/07/23 08:55:12;;;;;;;;;;;;;;;39.50;20.20;99720.59;4399096;32;20625;-84
2022/07/23 08:57:39;;;;;;;;;;;;;;;39.48;21.11;99719.91;4399991;32;20365;-87
2022/07/23 09:00:07;;;;;;;;;;;;;;;39.63;20.43;99718.28;4410772;32;19978;-86
2022/07/23 09:02:41;;;;;;;;;;;;;;;39.68;20.96;99710.47;4405984;32;19985;-85
2022/07/23 09:05:09;;;;;;;;;;;;;;;39.45;21.38;99710.25;4388356;32;19997;-86
2022/07/23 09:07:35;;;;;;;;;;;;;;;39.95;19.20;99711.22;4400396;32;20064;-85
2022/07/23 09:10:09;;;;;;;;;;;;;;;39.67;19.97;99707.94;4415640;32;20044;-85
2022/07/23 09:12:36;;;;;;;;;;;;;;;39.83;20.79;99710.72;4401838;32;19992;-85
2022/07/23 09:15:07;;;;;;;;;;;;;;;39.61;18.66;99705.91;4413828;32;20042;-86
2022/07/23 09:17:38;;;;;;;;;;;;;;;39.86;19.90;99712.25;4398840;32;20752;-87
2022/07/23 09:20:15;;;;;;;;;;;;;;;39.85;19.29;99715.94;4406760;32;20020;-86
2022/07/23 09:22:46;;;;;;;;;;;;;;;39.85;19.44;99705.09;4400917;32;20471;-88
2022/07/23 09:25:14;;;;;;;;;;;;;;;39.84;22.38;99703.41;4401172;32;20045;-87
2022/07/23 09:27:55;;;;;;;;;;;;;;;40.01;18.25;99705.13;4401351;32;20503;-89
2022/07/23 09:30:27;;;;;;;;;;;;;;;39.62;20.82;99705.72;4398370;32;20000;-88
2022/07/23 09:33:24;;;;;;;;;;;;;;;39.70;20.07;99699.47;4386313;32;20687;-89
2022/07/23 09:35:56;;;;;;;;;;;;;;;39.77;20.49;99705.13;4401280;32;19985;-86
2022/07/23 09:38:23;;;;;;;;;;;;;;;40.05;19.54;99711.91;4405999;32;20327;-89
2022/07/23 09:41:06;;;;;;;;;;;;;;;39.98;19.15;99710.87;4406594;32;20019;-89
2022/07/23 09:43:34;;;;;;;;;;;;;;;40.04;19.19;99702.06;4403876;32;20391;-89
2022/07/23 09:46:19;;;;;;;;;;;;;;;39.62;19.52;99705.72;4105056;32;10003840;-89
2022/07/23 09:48:47;;;;;;;;;;;;;;;40.01;19.29;99699.69;4403688;32;19975;-88
2022/07/23 09:51:18;;;;;;;;;;;;;;;40.07;18.52;99699.03;4412623;32;19978;-88
2022/07/23 09:53:44;;;;;;;;;;;;;;;39.80;20.10;99707.50;4408276;32;20041;-87
2022/07/23 09:56:12;;;;;;;;;;;;;;;39.69;19.61;99692.34;4415211;32;19986;-87
2022/07/23 09:58:43;;;;;;;;;;;;;;;39.72;20.67;99701.03;4410743;32;19982;-89
2022/07/23 10:01:10;;;;;;;;;;;;;;;39.61;19.99;99693.19;4402302;32;19989;-89
2022/07/23 10:03:37;;;;;;;;;;;;;;;39.86;20.74;99685.12;4388398;32;20017;-89
2022/07/23 10:06:09;;;;;;;;;;;;;;;39.83;19.27;99688.19;4410438;32;20452;-87
2022/07/23 10:08:43;;;;;;;;;;;;;;;40.16;18.56;99680.94;4403914;32;20354;-87
2022/07/23 10:11:13;;;;;;;;;;;;;;;39.85;19.53;99683.41;4392582;32;20416;-86
2022/07/23 10:16:22;;;;;;;;;;;;;;;39.41;19.61;99675.50;4410255;32;19986;-85
2022/07/23 10:18:53;;;;;;;;;;;;;;;39.47;18.98;99669.44;4442533;32;19997;-88
2022/07/23 10:21:49;;;;;;;;;;;;;;;39.62;19.21;99675.91;4447997;32;20060;-85
2022/07/23 10:24:39;;;;;;;;;;;;;;;39.85;19.92;99667.16;4434634;32;19986;-88
2022/07/23 10:27:12;;;;;;;;;;;;;;;39.41;19.54;99678.22;4448022;32;20050;-87
2022/07/23 10:29:45;;;;;;;;;;;;;;;39.58;19.42;99671.00;4432223;32;19989;-87
2022/07/23 10:32:32;;;;;;;;;;;;;;;39.14;18.35;99674.72;4431413;32;20044;-87
2022/07/23 10:35:03;;;;;;;;;;;;;;;39.14;19.26;99672.03;4424485;32;19981;-88
2022/07/23 10:37:32;;;;;;;;;;;;;;;39.51;19.87;99671.66;4431625;32;20004;-87
2022/07/23 10:40:10;;;;;;;;;;;;;;;39.78;18.19;99655.31;4424900;32;20334;-86
2022/07/23 10:42:37;;;;;;;;;;;;;;;40.12;18.95;99658.69;4447766;32;20348;-86
2022/07/23 10:45:22;;;;;;;;;;;;;;;39.94;18.36;99649.87;4447134;32;19977;-87
2022/07/23 10:47:50;;;;;;;;;;;;;;;39.95;19.21;99657.84;4444366;32;19980;-87
2022/07/23 10:50:17;;;;;;;;;;;;;;;39.80;18.58;99647.84;4422358;32;19989;-87
2022/07/23 10:53:03;;;;;;;;;;;;;;;40.14;18.92;99640.41;4436778;32;20314;-87
2022/07/23 10:55:30;;;;;;;;;;;;;;;39.67;19.31;99638.31;4435848;32;20000;-86
2022/07/23 10:57:57;;;;;;;;;;;;;;;40.84;17.82;99637.03;4438953;32;20326;-86
2022/07/23 11:00:24;;;;;;;;;;;;;;;40.70;19.80;99634.22;4435499;32;20362;-84
2022/07/23 11:02:55;;;;;;;;;;;;;;;40.98;17.17;99640.06;4423953;32;20484;-84
2022/07/23 11:05:23;;;;;;;;;;;;;;;41.16;15.93;99628.94;4428039;32;19989;-84
2022/07/23 11:08:10;;;;;;;;;;;;;;;40.58;16.87;99631.84;4435372;32;19973;-85
2022/07/23 11:10:38;;;;;;;;;;;;;;;40.50;17.51;99634.59;4431785;32;19989;-86
2022/07/23 11:13:24;;;;;;;;;;;;;;;39.88;18.00;99623.44;4423640;32;20088;-87
2022/07/23 11:16:10;;;;;;;;;;;;;;;40.08;17.47;99624.81;4434760;32;19973;-88
2022/07/23 11:18:41;;;;;;;;;;;;;;;40.57;16.96;99613.88;4432173;32;19974;-88
2022/07/23 11:21:26;;;;;;;;;;;;;;;40.01;18.73;99610.22;4417874;32;20004;-87
2022/07/23 11:23:59;;;;;;;;;;;;;;;40.43;17.64;99606.44;4439488;32;20005;-87
2022/07/23 11:26:45;;;;;;;;;;;;;;;40.40;18.59;99617.66;4447690;32;20033;-86
2022/07/23 11:29:38;;;;;;;;;;;;;;;40.45;17.28;99604.41;4411992;32;19997;-87
2022/07/23 11:32:23;;;;;;;;;;;;;;;40.10;17.42;99611.91;4446110;32;19997;-88
2022/07/23 11:34:51;;;;;;;;;;;;;;;40.35;18.33;99603.75;4448398;32;20382;-89
2022/07/23 11:37:46;;;;;;;;;;;;;;;40.06;16.63;99605.13;4451205;32;20095;-88
2022/07/23 11:40:13;;;;;;;;;;;;;;;40.20;17.82;99596.31;4436679;32;20064;-86
2022/07/23 11:42:56;;;;;;;;;;;;;;;39.68;18.23;99590.37;4439694;32;20000;-87
2022/07/23 11:45:24;;;;;;;;;;;;;;;39.58;19.72;99590.56;4437867;32;19984;-86
2022/07/23 11:47:51;;;;;;;;;;;;;;;39.74;17.67;99596.00;4452801;32;19997;-87
2022/07/23 11:50:22;;;;;;;;;;;;;;;40.40;16.58;99577.81;4421798;32;20054;-85
2022/07/23 11:52:50;;;;;;;;;;;;;;;40.49;16.86;99578.59;4423026;32;21246;-86
2022/07/23 11:55:17;;;;;;;;;;;;;;;40.38;17.62;99582.56;4453851;32;20000;-86
2022/07/23 11:57:46;;;;;;;;;;;;;;;40.27;17.80;99569.38;4438651;32;20003;-85
2022/07/23 12:00:16;;;;;;;;;;;;;;;40.31;18.47;99565.28;4451157;32;20310;-86
2022/07/23 12:02:47;;;;;;;;;;;;;;;40.22;17.80;99569.03;4454169;32;19996;-86
2022/07/23 12:05:14;;;;;;;;;;;;;;;39.23;18.52;99568.13;4448538;32;19996;-85
2022/07/23 12:07:44;;;;;;;;;;;;;;;39.55;18.37;99563.78;4453335;32;20048;-85
2022/07/23 12:10:15;;;;;;;;;;;;;;;39.89;19.51;99565.53;4438886;32;20044;-85
2022/07/23 12:12:44;;;;;;;;;;;;;;;40.10;16.99;99559.53;4453078;32;20329;-85
2022/07/23 12:15:12;;;;;;;;;;;;;;;39.96;16.88;99559.22;4450989;32;19965;-85
2022/07/23 12:17:40;;;;;;;;;;;;;;;39.69;17.99;99544.13;4453245;32;19987;-85
2022/07/23 12:20:18;;;;;;;;;;;;;;;39.45;17.22;99546.88;4439297;32;19973;-85
2022/07/23 12:22:47;;;;;;;;;;;;;;;40.37;17.96;99547.47;4416235;32;20015;-87
2022/07/23 12:25:15;;;;;;;;;;;;;;;40.26;19.08;99550.56;4416541;32;20020;-85
2022/07/23 12:27:43;;;;;;;;;;;;;;;40.04;18.23;99542.09;4437442;32;19989;-85
2022/07/23 12:30:21;;;;;;;;;;;;;;;40.41;17.87;99544.22;4438932;32;20357;-85
2022/07/23 12:32:50;;;;;;;;;;;;;;;40.36;18.08;99540.34;4424149;32;20007;-85
2022/07/23 12:35:18;;;;;;;;;;;;;;;40.09;16.66;99523.44;4405282;32;20027;-85
2022/07/23 12:37:52;;;;;;;;;;;;;;;40.30;18.30;99536.44;4419939;32;20377;-87
2022/07/23 12:40:23;;;;;;;;;;;;;;;40.25;17.35;99527.16;4421071;32;20025;-85
2022/07/23 12:42:52;;;;;;;;;;;;;;;39.81;17.36;99525.69;4423655;32;20879;-85
2022/07/23 12:45:19;;;;;;;;;;;;;;;39.87;17.93;99529.59;4437722;32;19982;-85
2022/07/23 12:48:08;;;;;;;;;;;;;;;39.04;19.38;99533.25;4421775;32;19989;-86
2022/07/23 12:50:35;;;;;;;;;;;;;;;38.93;19.64;99520.00;4436959;32;19995;-86
2022/07/23 12:53:22;;;;;;;;;;;;;;;39.24;19.54;99518.38;4438091;32;20032;-86
2022/07/23 12:55:51;;;;;;;;;;;;;;;39.18;19.94;99508.19;4424504;32;19998;-86
2022/07/23 12:58:53;;;;;;;;;;;;;;;39.47;19.41;99506.88;4414704;32;20476;-87